Check out our new PWSWeather beta!
PWSweather.com
Personal Weather Stations
Station Observations
KOMOKA
Komoka Village, Komoka, ON N0L IRO

Komoka VillageKomoka, ON N0L IRO

Lat: 42.9542444, Lon: -81.4348861

Elevation: 805

Station Type: Davis Vantage Pro 2

www.komokaweather.com

High Low Average
Temperature 10.6°F-11.9°C -15.2°F-26.2°C -3.7°F-19.8°C
Dew Point -1.8°F-18.8°C -21.1°F-29.5°C -11.7°F-24.3°C
Winds 4.0 mph 6.4 kmh Calm Calm 1.0 mph E1.6 kmh E
Wind Gusts 8.0 mph12.9 kmh -- 2.0 mph3.2 kmh
Humidity 75% 53% 69%
Pressure 30.48 in1032.2 mb 30.39 in1029.1 mb -
Precipitation 0.03 in0.8 mm - -
Hour Temp Dew Point Humidity Winds Wind Gusts Pressure Precip Precip Rate Daily Precip Total
12:04 AM -9.0°F-22.8°C -15.0°F-26.1°C 74% Calm Calm -- 30.46 in1031.5 mb 0.00 in0.0 mm 0.00 in0.0 mm 0.00 in0.0 mm
12:11 AM -9.0°F-22.8°C -14.8°F-26.0°C 75% Calm Calm -- 30.46 in1031.5 mb 0.00 in0.0 mm 0.00 in0.0 mm 0.00 in0.0 mm
12:18 AM -9.2°F-22.9°C -15.2°F-26.2°C 75% Calm Calm 1.0 mph1.6 kmh 30.46 in1031.5 mb 0.00 in0.0 mm 0.00 in0.0 mm 0.00 in0.0 mm
12:25 AM -9.2°F-22.9°C -15.0°F-26.1°C 75% Calm Calm 1.0 mph1.6 kmh 30.46 in1031.5 mb 0.00 in0.0 mm 0.00 in0.0 mm 0.00 in0.0 mm
12:32 AM -9.8°F-23.2°C -15.7°F-26.5°C 74% Calm Calm 1.0 mph1.6 kmh 30.45 in1031.2 mb 0.00 in0.0 mm 0.00 in0.0 mm 0.00 in0.0 mm
12:39 AM -9.8°F-23.2°C -15.5°F-26.4°C 75% Calm Calm -- 30.45 in1031.2 mb 0.00 in0.0 mm 0.00 in0.0 mm 0.00 in0.0 mm
12:46 AM -9.6°F-23.1°C -15.3°F-26.3°C 75% Calm Calm -- 30.45 in1031.2 mb 0.00 in0.0 mm 0.00 in0.0 mm 0.00 in0.0 mm
12:53 AM -9.9°F-23.3°C -15.7°F-26.5°C 75% Calm Calm -- 30.45 in1031.2 mb 0.00 in0.0 mm 0.00 in0.0 mm 0.00 in0.0 mm
01:00 AM -10.1°F-23.4°C -15.9°F-26.6°C 75% Calm Calm -- 30.45 in1031.2 mb 0.00 in0.0 mm 0.00 in0.0 mm 0.00 in0.0 mm
01:07 AM -10.5°F-23.6°C -16.1°F-26.7°C 75% Calm Calm 1.0 mph1.6 kmh 30.45 in1031.2 mb 0.00 in0.0 mm 0.00 in0.0 mm 0.00 in0.0 mm
01:14 AM -10.8°F-23.8°C -16.6°F-27.0°C 75% 1.0 mph WSW1.6 kmh WSW 1.0 mph1.6 kmh 30.44 in1030.8 mb 0.00 in0.0 mm 0.00 in0.0 mm 0.00 in0.0 mm
01:21 AM -11.4°F-24.1°C -17.3°F-27.4°C 74% 1.0 mph WSW1.6 kmh WSW 1.0 mph1.6 kmh 30.44 in1030.8 mb 0.00 in0.0 mm 0.00 in0.0 mm 0.00 in0.0 mm
01:28 AM -11.7°F-24.3°C -17.7°F-27.6°C 74% 1.0 mph WSW1.6 kmh WSW 3.0 mph4.8 kmh 30.44 in1030.8 mb 0.00 in0.0 mm 0.00 in0.0 mm 0.00 in0.0 mm
01:35 AM -11.7°F-24.3°C -17.5°F-27.5°C 75% 1.0 mph WSW1.6 kmh WSW 3.0 mph4.8 kmh 30.44 in1030.8 mb 0.00 in0.0 mm 0.00 in0.0 mm 0.00 in0.0 mm
01:42 AM -11.6°F-24.2°C -17.3°F-27.4°C 75% Calm Calm -- 30.44 in1030.8 mb 0.00 in0.0 mm 0.00 in0.0 mm 0.00 in0.0 mm
01:49 AM -11.7°F-24.3°C -17.3°F-27.4°C 75% Calm Calm 1.0 mph1.6 kmh 30.44 in1030.8 mb 0.00 in0.0 mm 0.00 in0.0 mm 0.00 in0.0 mm
01:56 AM -12.3°F-24.6°C -18.2°F-27.9°C 74% Calm Calm 1.0 mph1.6 kmh 30.44 in1030.8 mb 0.00 in0.0 mm 0.00 in0.0 mm 0.00 in0.0 mm
02:03 AM -12.5°F-24.7°C -18.2°F-27.9°C 75% Calm Calm 1.0 mph1.6 kmh 30.45 in1031.2 mb 0.00 in0.0 mm 0.00 in0.0 mm 0.00 in0.0 mm
02:10 AM -12.6°F-24.8°C -18.4°F-28.0°C 75% Calm Calm 1.0 mph1.6 kmh 30.45 in1031.2 mb 0.00 in0.0 mm 0.00 in0.0 mm 0.00 in0.0 mm
02:17 AM -12.8°F-24.9°C -18.8°F-28.2°C 74% Calm Calm 1.0 mph1.6 kmh 30.45 in1031.2 mb 0.00 in0.0 mm 0.00 in0.0 mm 0.00 in0.0 mm
02:24 AM -13.2°F-25.1°C -19.1°F-28.4°C 74% Calm Calm -- 30.45 in1031.2 mb 0.00 in0.0 mm 0.00 in0.0 mm 0.00 in0.0 mm
02:31 AM -13.4°F-25.2°C -19.3°F-28.5°C 74% Calm Calm -- 30.45 in1031.2 mb 0.00 in0.0 mm 0.00 in0.0 mm 0.00 in0.0 mm
02:38 AM -13.4°F-25.2°C -19.1°F-28.4°C 75% Calm Calm 1.0 mph1.6 kmh 30.45 in1031.2 mb 0.00 in0.0 mm 0.00 in0.0 mm 0.00 in0.0 mm
02:45 AM -13.9°F-25.5°C -19.8°F-28.8°C 74% 1.0 mph WSW1.6 kmh WSW 1.0 mph1.6 kmh 30.45 in1031.2 mb 0.00 in0.0 mm 0.00 in0.0 mm 0.00 in0.0 mm
02:52 AM -14.1°F-25.6°C -20.0°F-28.9°C 74% Calm Calm 1.0 mph1.6 kmh 30.45 in1031.2 mb 0.00 in0.0 mm 0.00 in0.0 mm 0.00 in0.0 mm
02:59 AM -14.4°F-25.8°C -20.0°F-28.9°C 75% 1.0 mph WSW1.6 kmh WSW 1.0 mph1.6 kmh 30.45 in1031.2 mb 0.00 in0.0 mm 0.00 in0.0 mm 0.00 in0.0 mm
03:06 AM -14.4°F-25.8°C -20.4°F-29.1°C 74% 1.0 mph WSW1.6 kmh WSW 3.0 mph4.8 kmh 30.44 in1030.8 mb 0.00 in0.0 mm 0.00 in0.0 mm 0.00 in0.0 mm
03:13 AM -14.6°F-25.9°C -20.6°F-29.2°C 74% Calm Calm 3.0 mph4.8 kmh 30.45 in1031.2 mb 0.00 in0.0 mm 0.00 in0.0 mm 0.00 in0.0 mm
03:24 AM -14.8°F-26.0°C -20.7°F-29.3°C 74% Calm Calm 1.0 mph1.6 kmh 30.44 in1030.8 mb 0.00 in0.0 mm 0.00 in0.0 mm 0.00 in0.0 mm
03:31 AM -14.4°F-25.8°C -20.2°F-29.0°C 75% Calm Calm 1.0 mph1.6 kmh 30.45 in1031.2 mb 0.00 in0.0 mm 0.00 in0.0 mm 0.00 in0.0 mm
03:38 AM -14.4°F-25.8°C -20.4°F-29.1°C 74% Calm Calm 1.0 mph1.6 kmh 30.45 in1031.2 mb 0.00 in0.0 mm 0.00 in0.0 mm 0.00 in0.0 mm
03:46 AM -14.4°F-25.8°C -20.4°F-29.1°C 74% Calm Calm 1.0 mph1.6 kmh 30.45 in1031.2 mb 0.00 in0.0 mm 0.00 in0.0 mm 0.00 in0.0 mm
03:52 AM -14.3°F-25.7°C -19.8°F-28.8°C 75% Calm Calm -- 30.45 in1031.2 mb 0.00 in0.0 mm 0.00 in0.0 mm 0.00 in0.0 mm
03:59 AM -13.9°F-25.5°C -19.5°F-28.6°C 75% Calm Calm -- 30.45 in1031.2 mb 0.00 in0.0 mm 0.00 in0.0 mm 0.00 in0.0 mm
04:06 AM -13.5°F-25.3°C -19.3°F-28.5°C 75% Calm Calm -- 30.45 in1031.2 mb 0.00 in0.0 mm 0.00 in0.0 mm 0.00 in0.0 mm
04:13 AM -13.7°F-25.4°C -19.7°F-28.7°C 74% Calm Calm 1.0 mph1.6 kmh 30.45 in1031.2 mb 0.00 in0.0 mm 0.00 in0.0 mm 0.00 in0.0 mm
04:20 AM -13.7°F-25.4°C -19.7°F-28.7°C 74% Calm Calm 1.0 mph1.6 kmh 30.44 in1030.8 mb 0.00 in0.0 mm 0.00 in0.0 mm 0.00 in0.0 mm
04:27 AM -14.3°F-25.7°C -20.0°F-28.9°C 74% 1.0 mph WSW1.6 kmh WSW 1.0 mph1.6 kmh 30.44 in1030.8 mb 0.00 in0.0 mm 0.00 in0.0 mm 0.00 in0.0 mm
04:34 AM -14.4°F-25.8°C -20.2°F-29.0°C 74% 1.0 mph WSW1.6 kmh WSW 3.0 mph4.8 kmh 30.44 in1030.8 mb 0.00 in0.0 mm 0.00 in0.0 mm 0.00 in0.0 mm
04:41 AM -14.3°F-25.7°C -20.2°F-29.0°C 74% 1.0 mph WSW1.6 kmh WSW 3.0 mph4.8 kmh 30.44 in1030.8 mb 0.00 in0.0 mm 0.00 in0.0 mm 0.00 in0.0 mm
04:48 AM -14.1°F-25.6°C -20.0°F-28.9°C 74% Calm Calm 1.0 mph1.6 kmh 30.44 in1030.8 mb 0.00 in0.0 mm 0.00 in0.0 mm 0.00 in0.0 mm
04:55 AM -13.7°F-25.4°C -19.7°F-28.7°C 74% Calm Calm 1.0 mph1.6 kmh 30.44 in1030.8 mb 0.00 in0.0 mm 0.00 in0.0 mm 0.00 in0.0 mm
05:02 AM -13.4°F-25.2°C -18.9°F-28.3°C 75% 1.0 mph WSW1.6 kmh WSW 1.0 mph1.6 kmh 30.44 in1030.8 mb 0.00 in0.0 mm 0.00 in0.0 mm 0.00 in0.0 mm
05:09 AM -12.8°F-24.9°C -18.6°F-28.1°C 75% 1.0 mph WSW1.6 kmh WSW 1.0 mph1.6 kmh 30.44 in1030.8 mb 0.00 in0.0 mm 0.00 in0.0 mm 0.00 in0.0 mm
05:16 AM -12.5°F-24.7°C -18.2°F-27.9°C 75% 1.0 mph WSW1.6 kmh WSW 3.0 mph4.8 kmh 30.43 in1030.5 mb 0.00 in0.0 mm 0.00 in0.0 mm 0.00 in0.0 mm
05:23 AM -12.5°F-24.7°C -18.4°F-28.0°C 74% Calm Calm 1.0 mph1.6 kmh 30.44 in1030.8 mb 0.00 in0.0 mm 0.00 in0.0 mm 0.00 in0.0 mm
05:30 AM -12.5°F-24.7°C -18.4°F-28.0°C 74% Calm Calm 3.0 mph4.8 kmh 30.44 in1030.8 mb 0.00 in0.0 mm 0.00 in0.0 mm 0.00 in0.0 mm
05:37 AM -12.5°F-24.7°C -18.4°F-28.0°C 74% Calm Calm 3.0 mph4.8 kmh 30.44 in1030.8 mb 0.00 in0.0 mm 0.00 in0.0 mm 0.00 in0.0 mm
05:44 AM -12.5°F-24.7°C -18.0°F-27.8°C 75% Calm Calm 1.0 mph1.6 kmh 30.44 in1030.8 mb 0.00 in0.0 mm 0.00 in0.0 mm 0.00 in0.0 mm
05:51 AM -12.8°F-24.9°C -18.8°F-28.2°C 74% Calm Calm -- 30.44 in1030.8 mb 0.00 in0.0 mm 0.00 in0.0 mm 0.00 in0.0 mm
05:58 AM -12.8°F-24.9°C -18.4°F-28.0°C 75% Calm Calm -- 30.44 in1030.8 mb 0.00 in0.0 mm 0.00 in0.0 mm 0.00 in0.0 mm
06:05 AM -12.8°F-24.9°C -18.8°F-28.2°C 74% Calm Calm -- 30.44 in1030.8 mb 0.00 in0.0 mm 0.00 in0.0 mm 0.00 in0.0 mm
06:12 AM -12.6°F-24.8°C -18.4°F-28.0°C 75% Calm Calm 1.0 mph1.6 kmh 30.44 in1030.8 mb 0.00 in0.0 mm 0.00 in0.0 mm 0.00 in0.0 mm
06:19 AM -12.5°F-24.7°C -18.2°F-27.9°C 75% Calm Calm 1.0 mph1.6 kmh 30.44 in1030.8 mb 0.00 in0.0 mm 0.00 in0.0 mm 0.00 in0.0 mm
06:26 AM -12.6°F-24.8°C -18.4°F-28.0°C 75% Calm Calm -- 30.45 in1031.2 mb 0.00 in0.0 mm 0.00 in0.0 mm 0.00 in0.0 mm
06:33 AM -12.8°F-24.9°C -18.4°F-28.0°C 75% Calm Calm -- 30.45 in1031.2 mb 0.00 in0.0 mm 0.00 in0.0 mm 0.00 in0.0 mm
06:40 AM -13.2°F-25.1°C -19.1°F-28.4°C 74% Calm Calm -- 30.45 in1031.2 mb 0.00 in0.0 mm 0.00 in0.0 mm 0.00 in0.0 mm
06:47 AM -13.4°F-25.2°C -19.1°F-28.4°C 75% Calm Calm -- 30.45 in1031.2 mb 0.00 in0.0 mm 0.00 in0.0 mm 0.00 in0.0 mm
06:54 AM -13.9°F-25.5°C -19.8°F-28.8°C 74% Calm Calm -- 30.45 in1031.2 mb 0.00 in0.0 mm 0.00 in0.0 mm 0.00 in0.0 mm
07:01 AM -14.3°F-25.7°C -20.2°F-29.0°C 74% Calm Calm 1.0 mph1.6 kmh 30.45 in1031.2 mb 0.00 in0.0 mm 0.00 in0.0 mm 0.00 in0.0 mm
07:08 AM -15.0°F-26.1°C -20.7°F-29.3°C 74% Calm Calm 1.0 mph1.6 kmh 30.45 in1031.2 mb 0.00 in0.0 mm 0.00 in0.0 mm 0.00 in0.0 mm
07:15 AM -15.2°F-26.2°C -20.9°F-29.4°C 74% 1.0 mph WSW1.6 kmh WSW 1.0 mph1.6 kmh 30.45 in1031.2 mb 0.00 in0.0 mm 0.00 in0.0 mm 0.00 in0.0 mm
07:22 AM -15.2°F-26.2°C -20.9°F-29.4°C 74% 1.0 mph WSW1.6 kmh WSW 1.0 mph1.6 kmh 30.45 in1031.2 mb 0.00 in0.0 mm 0.00 in0.0 mm 0.00 in0.0 mm
07:29 AM -15.2°F-26.2°C -20.9°F-29.4°C 74% Calm Calm 1.0 mph1.6 kmh 30.45 in1031.2 mb 0.00 in0.0 mm 0.00 in0.0 mm 0.00 in0.0 mm
07:36 AM -15.2°F-26.2°C -21.1°F-29.5°C 74% Calm Calm -- 30.45 in1031.2 mb 0.00 in0.0 mm 0.00 in0.0 mm 0.00 in0.0 mm
07:43 AM -15.0°F-26.1°C -20.9°F-29.4°C 74% Calm Calm -- 30.45 in1031.2 mb 0.00 in0.0 mm 0.00 in0.0 mm 0.00 in0.0 mm
07:50 AM -15.0°F-26.1°C -20.7°F-29.3°C 74% Calm Calm -- 30.45 in1031.2 mb 0.00 in0.0 mm 0.00 in0.0 mm 0.00 in0.0 mm
07:57 AM -14.8°F-26.0°C -20.7°F-29.3°C 74% Calm Calm 1.0 mph1.6 kmh 30.45 in1031.2 mb 0.00 in0.0 mm 0.00 in0.0 mm 0.00 in0.0 mm
08:04 AM -15.2°F-26.2°C -20.9°F-29.4°C 74% Calm Calm 1.0 mph1.6 kmh 30.45 in1031.2 mb 0.00 in0.0 mm 0.00 in0.0 mm 0.00 in0.0 mm
08:11 AM -15.2°F-26.2°C -20.9°F-29.4°C 74% Calm Calm 1.0 mph1.6 kmh 30.45 in1031.2 mb 0.00 in0.0 mm 0.00 in0.0 mm 0.00 in0.0 mm
08:18 AM -15.0°F-26.1°C -20.9°F-29.4°C 74% Calm Calm 1.0 mph1.6 kmh 30.45 in1031.2 mb 0.00 in0.0 mm 0.00 in0.0 mm 0.00 in0.0 mm
08:25 AM -14.8°F-26.0°C -20.7°F-29.3°C 74% Calm Calm 1.0 mph1.6 kmh 30.46 in1031.5 mb 0.00 in0.0 mm 0.00 in0.0 mm 0.00 in0.0 mm
08:32 AM -14.3°F-25.7°C -20.0°F-28.9°C 74% Calm Calm 1.0 mph1.6 kmh 30.46 in1031.5 mb 0.00 in0.0 mm 0.00 in0.0 mm 0.00 in0.0 mm
08:39 AM -14.1°F-25.6°C -19.8°F-28.8°C 74% Calm Calm 1.0 mph1.6 kmh 30.46 in1031.5 mb 0.00 in0.0 mm 0.00 in0.0 mm 0.00 in0.0 mm
08:46 AM -13.4°F-25.2°C -18.9°F-28.3°C 75% Calm Calm 1.0 mph1.6 kmh 30.47 in1031.8 mb 0.00 in0.0 mm 0.00 in0.0 mm 0.00 in0.0 mm
08:53 AM -12.1°F-24.5°C -17.9°F-27.7°C 75% Calm Calm -- 30.47 in1031.8 mb 0.00 in0.0 mm 0.00 in0.0 mm 0.00 in0.0 mm
09:00 AM -11.4°F-24.1°C -17.0°F-27.2°C 75% Calm Calm -- 30.48 in1032.2 mb 0.00 in0.0 mm 0.00 in0.0 mm 0.00 in0.0 mm
09:07 AM -10.5°F-23.6°C -16.1°F-26.7°C 75% 1.0 mph WSW1.6 kmh WSW 3.0 mph4.8 kmh 30.47 in1031.8 mb 0.00 in0.0 mm 0.00 in0.0 mm 0.00 in0.0 mm
09:14 AM -9.0°F-22.8°C -14.8°F-26.0°C 75% 1.0 mph WSW1.6 kmh WSW 3.0 mph4.8 kmh 30.47 in1031.8 mb 0.00 in0.0 mm 0.00 in0.0 mm 0.00 in0.0 mm
09:21 AM -7.8°F-22.1°C -13.5°F-25.3°C 75% 1.0 mph WSW1.6 kmh WSW 3.0 mph4.8 kmh 30.47 in1031.8 mb 0.00 in0.0 mm 0.00 in0.0 mm 0.00 in0.0 mm
09:28 AM -6.5°F-21.4°C -12.5°F-24.7°C 75% 1.0 mph WSW1.6 kmh WSW 3.0 mph4.8 kmh 30.47 in1031.8 mb 0.00 in0.0 mm 0.00 in0.0 mm 0.00 in0.0 mm
09:35 AM -4.2°F-20.1°C -10.1°F-23.4°C 75% Calm Calm 1.0 mph1.6 kmh 30.47 in1031.8 mb 0.00 in0.0 mm 0.00 in0.0 mm 0.00 in0.0 mm
09:42 AM -3.6°F-19.8°C -10.1°F-23.4°C 73% Calm Calm -- 30.48 in1032.2 mb 0.00 in0.0 mm 0.00 in0.0 mm 0.00 in0.0 mm
09:49 AM -2.4°F-19.1°C -9.6°F-23.1°C 71% Calm Calm -- 30.47 in1031.8 mb 0.00 in0.0 mm 0.00 in0.0 mm 0.00 in0.0 mm
09:56 AM -1.8°F-18.8°C -9.6°F-23.1°C 69% Calm Calm -- 30.48 in1032.2 mb 0.00 in0.0 mm 0.00 in0.0 mm 0.00 in0.0 mm
10:03 AM -1.7°F-18.7°C -9.0°F-22.8°C 70% Calm Calm -- 30.48 in1032.2 mb 0.00 in0.0 mm 0.00 in0.0 mm 0.00 in0.0 mm
10:10 AM -0.8°F-18.2°C -8.5°F-22.5°C 69% Calm Calm -- 30.48 in1032.2 mb 0.00 in0.0 mm 0.00 in0.0 mm 0.00 in0.0 mm
10:17 AM 0.0°F-17.8°C -8.1°F-22.3°C 68% 1.0 mph N1.6 kmh N 4.0 mph6.4 kmh 30.48 in1032.2 mb 0.00 in0.0 mm 0.00 in0.0 mm 0.00 in0.0 mm
10:24 AM 0.3°F-17.6°C -8.0°F-22.2°C 67% 3.0 mph N4.8 kmh N 4.0 mph6.4 kmh 30.48 in1032.2 mb 0.00 in0.0 mm 0.00 in0.0 mm 0.00 in0.0 mm
10:31 AM 1.0°F-17.2°C -7.1°F-21.7°C 68% 3.0 mph N4.8 kmh N 4.0 mph6.4 kmh 30.48 in1032.2 mb 0.00 in0.0 mm 0.00 in0.0 mm 0.00 in0.0 mm
10:38 AM 1.6°F-16.9°C -6.7°F-21.5°C 68% 3.0 mph N4.8 kmh N 4.0 mph6.4 kmh 30.48 in1032.2 mb 0.00 in0.0 mm 0.00 in0.0 mm 0.00 in0.0 mm
10:45 AM 2.1°F-16.6°C -6.0°F-21.1°C 68% 3.0 mph NE4.8 kmh NE 4.0 mph6.4 kmh 30.48 in1032.2 mb 0.00 in0.0 mm 0.00 in0.0 mm 0.00 in0.0 mm
10:52 AM 2.8°F-16.2°C -5.6°F-20.9°C 67% 3.0 mph NE4.8 kmh NE 4.0 mph6.4 kmh 30.48 in1032.2 mb 0.00 in0.0 mm 0.00 in0.0 mm 0.00 in0.0 mm
10:59 AM 3.4°F-15.9°C -5.8°F-21.0°C 65% 3.0 mph NE4.8 kmh NE 4.0 mph6.4 kmh 30.48 in1032.2 mb 0.00 in0.0 mm 0.00 in0.0 mm 0.00 in0.0 mm
11:06 AM 3.7°F-15.7°C -5.8°F-21.0°C 64% 3.0 mph NE4.8 kmh NE 4.0 mph6.4 kmh 30.48 in1032.2 mb 0.00 in0.0 mm 0.00 in0.0 mm 0.00 in0.0 mm
11:13 AM 3.9°F-15.6°C -6.2°F-21.2°C 62% 3.0 mph NE4.8 kmh NE 4.0 mph6.4 kmh 30.48 in1032.2 mb 0.00 in0.0 mm 0.00 in0.0 mm 0.00 in0.0 mm
11:20 AM 4.6°F-15.2°C -5.4°F-20.8°C 62% 1.0 mph NE1.6 kmh NE 4.0 mph6.4 kmh 30.47 in1031.8 mb 0.00 in0.0 mm 0.00 in0.0 mm 0.00 in0.0 mm
11:27 AM 5.2°F-14.9°C -5.1°F-20.6°C 62% 3.0 mph NNE4.8 kmh NNE 5.0 mph8.0 kmh 30.47 in1031.8 mb 0.00 in0.0 mm 0.00 in0.0 mm 0.00 in0.0 mm
11:34 AM 5.7°F-14.6°C -4.7°F-20.4°C 61% 1.0 mph NNE1.6 kmh NNE 5.0 mph8.0 kmh 30.48 in1032.2 mb 0.00 in0.0 mm 0.00 in0.0 mm 0.00 in0.0 mm
11:41 AM 5.5°F-14.7°C -5.3°F-20.7°C 60% 3.0 mph NE4.8 kmh NE 4.0 mph6.4 kmh 30.47 in1031.8 mb 0.00 in0.0 mm 0.00 in0.0 mm 0.00 in0.0 mm
11:48 AM 6.4°F-14.2°C -3.8°F-19.9°C 62% 1.0 mph NE1.6 kmh NE 4.0 mph6.4 kmh 30.47 in1031.8 mb 0.00 in0.0 mm 0.00 in0.0 mm 0.00 in0.0 mm
11:55 AM 7.0°F-13.9°C -4.0°F-20.0°C 60% 1.0 mph NNW1.6 kmh NNW 4.0 mph6.4 kmh 30.47 in1031.8 mb 0.00 in0.0 mm 0.00 in0.0 mm 0.00 in0.0 mm
12:02 PM 6.3°F-14.3°C -5.4°F-20.8°C 58% 3.0 mph W4.8 kmh W 5.0 mph8.0 kmh 30.47 in1031.8 mb 0.00 in0.0 mm 0.00 in0.0 mm 0.00 in0.0 mm
12:09 PM 7.0°F-13.9°C -4.7°F-20.4°C 58% 3.0 mph WSW4.8 kmh WSW 5.0 mph8.0 kmh 30.47 in1031.8 mb 0.00 in0.0 mm 0.00 in0.0 mm 0.00 in0.0 mm
12:16 PM 7.5°F-13.6°C -4.9°F-20.5°C 56% 1.0 mph WSW1.6 kmh WSW 5.0 mph8.0 kmh 30.47 in1031.8 mb 0.00 in0.0 mm 0.00 in0.0 mm 0.00 in0.0 mm
12:23 PM 8.2°F-13.2°C -3.3°F-19.6°C 59% 3.0 mph WSW4.8 kmh WSW 5.0 mph8.0 kmh 30.46 in1031.5 mb 0.00 in0.0 mm 0.00 in0.0 mm 0.00 in0.0 mm
12:30 PM 7.5°F-13.6°C -4.5°F-20.3°C 57% 3.0 mph WSW4.8 kmh WSW 5.0 mph8.0 kmh 30.46 in1031.5 mb 0.00 in0.0 mm 0.00 in0.0 mm 0.00 in0.0 mm
12:38 PM 8.4°F-13.1°C -3.6°F-19.8°C 57% 3.0 mph W4.8 kmh W 7.0 mph11.3 kmh 30.46 in1031.5 mb 0.00 in0.0 mm 0.00 in0.0 mm 0.00 in0.0 mm
12:44 PM 9.3°F-12.6°C -2.4°F-19.1°C 58% 3.0 mph WNW4.8 kmh WNW 5.0 mph8.0 kmh 30.45 in1031.2 mb 0.00 in0.0 mm 0.00 in0.0 mm 0.00 in0.0 mm
12:51 PM 9.3°F-12.6°C -2.9°F-19.4°C 57% 3.0 mph WNW4.8 kmh WNW 5.0 mph8.0 kmh 30.45 in1031.2 mb 0.00 in0.0 mm 0.00 in0.0 mm 0.00 in0.0 mm
12:58 PM 9.5°F-12.5°C -2.7°F-19.3°C 57% 3.0 mph W4.8 kmh W 5.0 mph8.0 kmh 30.45 in1031.2 mb 0.00 in0.0 mm 0.00 in0.0 mm 0.00 in0.0 mm
01:05 PM 9.0°F-12.8°C -3.5°F-19.7°C 56% 1.0 mph W1.6 kmh W 5.0 mph8.0 kmh 30.44 in1030.8 mb 0.00 in0.0 mm 0.00 in0.0 mm 0.00 in0.0 mm
01:12 PM 9.3°F-12.6°C -3.1°F-19.5°C 56% 3.0 mph W4.8 kmh W 4.0 mph6.4 kmh 30.44 in1030.8 mb 0.00 in0.0 mm 0.00 in0.0 mm 0.00 in0.0 mm
01:19 PM 10.2°F-12.1°C -2.0°F-18.9°C 57% 3.0 mph WSW4.8 kmh WSW 5.0 mph8.0 kmh 30.45 in1031.2 mb 0.01 in0.3 mm 0.09 in2.3 mm 0.01 in0.3 mm
01:26 PM 9.0°F-12.8°C -4.4°F-20.2°C 54% 3.0 mph W4.8 kmh W 5.0 mph8.0 kmh 30.45 in1031.2 mb 0.01 in0.3 mm 0.00 in0.0 mm 0.01 in0.3 mm
01:33 PM 8.4°F-13.1°C -3.6°F-19.8°C 57% 3.0 mph SW4.8 kmh SW 5.0 mph8.0 kmh 30.44 in1030.8 mb 0.01 in0.3 mm 0.00 in0.0 mm 0.01 in0.3 mm
01:40 PM 9.9°F-12.3°C -2.7°F-19.3°C 56% 3.0 mph NNE4.8 kmh NNE 5.0 mph8.0 kmh 30.43 in1030.5 mb 0.01 in0.3 mm 0.00 in0.0 mm 0.01 in0.3 mm
01:47 PM 9.1°F-12.7°C -3.5°F-19.7°C 56% 1.0 mph NNE1.6 kmh NNE 5.0 mph8.0 kmh 30.44 in1030.8 mb 0.02 in0.5 mm 0.09 in2.3 mm 0.02 in0.5 mm
01:54 PM 10.6°F-11.9°C -2.4°F-19.1°C 55% 3.0 mph NNE4.8 kmh NNE 7.0 mph11.3 kmh 30.43 in1030.5 mb 0.02 in0.5 mm 0.00 in0.0 mm 0.02 in0.5 mm
02:01 PM 10.4°F-12.0°C -1.8°F-18.8°C 57% 3.0 mph NE4.8 kmh NE 7.0 mph11.3 kmh 30.43 in1030.5 mb 0.02 in0.5 mm 0.00 in0.0 mm 0.02 in0.5 mm
02:08 PM 9.9°F-12.3°C -3.5°F-19.7°C 54% 3.0 mph SE4.8 kmh SE 4.0 mph6.4 kmh 30.43 in1030.5 mb 0.02 in0.5 mm 0.00 in0.0 mm 0.02 in0.5 mm
02:15 PM 8.2°F-13.2°C -4.5°F-20.3°C 55% 3.0 mph S4.8 kmh S 4.0 mph6.4 kmh 30.42 in1030.1 mb 0.02 in0.5 mm 0.00 in0.0 mm 0.02 in0.5 mm
02:22 PM 9.7°F-12.4°C -2.9°F-19.4°C 56% 1.0 mph S1.6 kmh S 4.0 mph6.4 kmh 30.43 in1030.5 mb 0.02 in0.5 mm 0.00 in0.0 mm 0.03 in0.8 mm
02:29 PM 10.0°F-12.2°C -2.6°F-19.2°C 56% 3.0 mph S4.8 kmh S 5.0 mph8.0 kmh 30.43 in1030.5 mb 0.02 in0.5 mm 0.00 in0.0 mm 0.03 in0.8 mm
02:36 PM 8.8°F-12.9°C -4.5°F-20.3°C 54% 3.0 mph S4.8 kmh S 7.0 mph11.3 kmh 30.43 in1030.5 mb 0.02 in0.5 mm 0.00 in0.0 mm 0.03 in0.8 mm
02:43 PM 9.3°F-12.6°C -3.6°F-19.8°C 55% 3.0 mph S4.8 kmh S 5.0 mph8.0 kmh 30.43 in1030.5 mb 0.02 in0.5 mm 0.00 in0.0 mm 0.03 in0.8 mm
02:50 PM 8.8°F-12.9°C -4.5°F-20.3°C 54% 3.0 mph WSW4.8 kmh WSW 5.0 mph8.0 kmh 30.43 in1030.5 mb 0.02 in0.5 mm 0.00 in0.0 mm 0.03 in0.8 mm
02:57 PM 8.1°F-13.3°C -4.4°F-20.2°C 56% 3.0 mph SW4.8 kmh SW 4.0 mph6.4 kmh 30.43 in1030.5 mb 0.02 in0.5 mm 0.00 in0.0 mm 0.03 in0.8 mm
03:04 PM 8.6°F-13.0°C -4.4°F-20.2°C 55% 3.0 mph W4.8 kmh W 5.0 mph8.0 kmh 30.43 in1030.5 mb 0.01 in0.3 mm 0.00 in0.0 mm 0.03 in0.8 mm
03:11 PM 8.4°F-13.1°C -4.4°F-20.2°C 55% 3.0 mph WNW4.8 kmh WNW 4.0 mph6.4 kmh 30.43 in1030.5 mb 0.01 in0.3 mm 0.00 in0.0 mm 0.03 in0.8 mm
03:18 PM 8.4°F-13.1°C -4.9°F-20.5°C 54% 3.0 mph WSW4.8 kmh WSW 8.0 mph12.9 kmh 30.43 in1030.5 mb 0.00 in0.0 mm 0.00 in0.0 mm 0.03 in0.8 mm
03:25 PM 8.8°F-12.9°C -4.2°F-20.1°C 55% 3.0 mph W4.8 kmh W 7.0 mph11.3 kmh 30.44 in1030.8 mb 0.00 in0.0 mm 0.00 in0.0 mm 0.03 in0.8 mm
03:32 PM 8.4°F-13.1°C -4.7°F-20.4°C 54% 4.0 mph W6.4 kmh W 5.0 mph8.0 kmh 30.43 in1030.5 mb 0.00 in0.0 mm 0.00 in0.0 mm 0.03 in0.8 mm
03:39 PM 8.8°F-12.9°C -4.5°F-20.3°C 54% 3.0 mph W4.8 kmh W 5.0 mph8.0 kmh 30.43 in1030.5 mb 0.00 in0.0 mm 0.00 in0.0 mm 0.03 in0.8 mm
03:46 PM 8.6°F-13.0°C -4.4°F-20.2°C 55% 3.0 mph WSW4.8 kmh WSW 5.0 mph8.0 kmh 30.43 in1030.5 mb 0.00 in0.0 mm 0.00 in0.0 mm 0.03 in0.8 mm
03:53 PM 8.8°F-12.9°C -4.2°F-20.1°C 55% 3.0 mph WSW4.8 kmh WSW 5.0 mph8.0 kmh 30.44 in1030.8 mb 0.00 in0.0 mm 0.00 in0.0 mm 0.03 in0.8 mm
04:00 PM 8.8°F-12.9°C -4.2°F-20.1°C 55% 3.0 mph WSW4.8 kmh WSW 5.0 mph8.0 kmh 30.44 in1030.8 mb 0.00 in0.0 mm 0.00 in0.0 mm 0.03 in0.8 mm
04:07 PM 8.8°F-12.9°C -4.5°F-20.3°C 54% 3.0 mph WSW4.8 kmh WSW 5.0 mph8.0 kmh 30.43 in1030.5 mb 0.00 in0.0 mm 0.00 in0.0 mm 0.03 in0.8 mm
04:14 PM 8.6°F-13.0°C -5.1°F-20.6°C 53% 3.0 mph SW4.8 kmh SW 5.0 mph8.0 kmh 30.43 in1030.5 mb 0.00 in0.0 mm 0.00 in0.0 mm 0.03 in0.8 mm
04:21 PM 8.2°F-13.2°C -5.3°F-20.7°C 53% 3.0 mph SSW4.8 kmh SSW 5.0 mph8.0 kmh 30.43 in1030.5 mb 0.00 in0.0 mm 0.00 in0.0 mm 0.03 in0.8 mm
04:28 PM 8.4°F-13.1°C -4.5°F-20.3°C 55% 4.0 mph SW6.4 kmh SW 7.0 mph11.3 kmh 30.44 in1030.8 mb 0.00 in0.0 mm 0.00 in0.0 mm 0.03 in0.8 mm
04:35 PM 7.9°F-13.4°C -4.9°F-20.5°C 55% 4.0 mph WSW6.4 kmh WSW 7.0 mph11.3 kmh 30.45 in1031.2 mb 0.00 in0.0 mm 0.00 in0.0 mm 0.03 in0.8 mm
04:42 PM 7.5°F-13.6°C -4.9°F-20.5°C 56% 3.0 mph SW4.8 kmh SW 7.0 mph11.3 kmh 30.44 in1030.8 mb 0.00 in0.0 mm 0.00 in0.0 mm 0.03 in0.8 mm
04:49 PM 7.3°F-13.7°C -5.1°F-20.6°C 56% 3.0 mph WSW4.8 kmh WSW 5.0 mph8.0 kmh 30.44 in1030.8 mb 0.00 in0.0 mm 0.00 in0.0 mm 0.03 in0.8 mm
04:56 PM 7.3°F-13.7°C -4.4°F-20.2°C 58% 3.0 mph SW4.8 kmh SW 5.0 mph8.0 kmh 30.43 in1030.5 mb 0.00 in0.0 mm 0.00 in0.0 mm 0.03 in0.8 mm
05:03 PM 7.2°F-13.8°C -4.5°F-20.3°C 58% 3.0 mph SSW4.8 kmh SSW 5.0 mph8.0 kmh 30.44 in1030.8 mb 0.00 in0.0 mm 0.00 in0.0 mm 0.03 in0.8 mm
05:10 PM 7.0°F-13.9°C -4.4°F-20.2°C 59% 1.0 mph SW1.6 kmh SW 4.0 mph6.4 kmh 30.44 in1030.8 mb 0.00 in0.0 mm 0.00 in0.0 mm 0.03 in0.8 mm
05:17 PM 6.8°F-14.0°C -4.5°F-20.3°C 59% 1.0 mph S1.6 kmh S 4.0 mph6.4 kmh 30.44 in1030.8 mb 0.00 in0.0 mm 0.00 in0.0 mm 0.03 in0.8 mm
05:24 PM 6.4°F-14.2°C -4.9°F-20.5°C 59% 1.0 mph S1.6 kmh S 3.0 mph4.8 kmh 30.44 in1030.8 mb 0.00 in0.0 mm 0.00 in0.0 mm 0.03 in0.8 mm
05:31 PM 6.3°F-14.3°C -5.1°F-20.6°C 59% 1.0 mph SW1.6 kmh SW 4.0 mph6.4 kmh 30.44 in1030.8 mb 0.00 in0.0 mm 0.00 in0.0 mm 0.03 in0.8 mm
05:38 PM 5.5°F-14.7°C -5.3°F-20.7°C 60% Calm Calm 3.0 mph4.8 kmh 30.44 in1030.8 mb 0.00 in0.0 mm 0.00 in0.0 mm 0.03 in0.8 mm
05:45 PM 5.2°F-14.9°C -5.4°F-20.8°C 61% Calm Calm 1.0 mph1.6 kmh 30.45 in1031.2 mb 0.00 in0.0 mm 0.00 in0.0 mm 0.03 in0.8 mm
05:52 PM 4.5°F-15.3°C -5.8°F-21.0°C 62% Calm Calm -- 30.45 in1031.2 mb 0.00 in0.0 mm 0.00 in0.0 mm 0.03 in0.8 mm
05:59 PM 3.7°F-15.7°C -6.0°F-21.1°C 63% Calm Calm -- 30.45 in1031.2 mb 0.00 in0.0 mm 0.00 in0.0 mm 0.03 in0.8 mm
06:06 PM 2.8°F-16.2°C -6.2°F-21.2°C 65% Calm Calm -- 30.45 in1031.2 mb 0.00 in0.0 mm 0.00 in0.0 mm 0.03 in0.8 mm
06:13 PM 2.5°F-16.4°C -6.3°F-21.3°C 66% Calm Calm -- 30.45 in1031.2 mb 0.00 in0.0 mm 0.00 in0.0 mm 0.03 in0.8 mm
06:20 PM 1.8°F-16.8°C -6.9°F-21.6°C 66% Calm Calm -- 30.45 in1031.2 mb 0.00 in0.0 mm 0.00 in0.0 mm 0.03 in0.8 mm
06:27 PM 1.2°F-17.1°C -7.1°F-21.7°C 67% Calm Calm -- 30.45 in1031.2 mb 0.00 in0.0 mm 0.00 in0.0 mm 0.03 in0.8 mm
06:34 PM 0.9°F-17.3°C -7.2°F-21.8°C 68% Calm Calm -- 30.45 in1031.2 mb 0.00 in0.0 mm 0.00 in0.0 mm 0.03 in0.8 mm
06:41 PM 0.3°F-17.6°C -7.4°F-21.9°C 69% Calm Calm -- 30.45 in1031.2 mb 0.00 in0.0 mm 0.00 in0.0 mm 0.03 in0.8 mm
06:48 PM -0.4°F-18.0°C -7.8°F-22.1°C 70% Calm Calm 1.0 mph1.6 kmh 30.44 in1030.8 mb 0.00 in0.0 mm 0.00 in0.0 mm 0.03 in0.8 mm
06:55 PM -1.1°F-18.4°C -8.5°F-22.5°C 70% Calm Calm 1.0 mph1.6 kmh 30.45 in1031.2 mb 0.00 in0.0 mm 0.00 in0.0 mm 0.03 in0.8 mm
07:02 PM -1.8°F-18.8°C -9.2°F-22.9°C 70% Calm Calm 1.0 mph1.6 kmh 30.44 in1030.8 mb 0.00 in0.0 mm 0.00 in0.0 mm 0.03 in0.8 mm
07:09 PM -2.2°F-19.0°C -9.2°F-22.9°C 71% Calm Calm 1.0 mph1.6 kmh 30.45 in1031.2 mb 0.00 in0.0 mm 0.00 in0.0 mm 0.03 in0.8 mm
07:16 PM -2.0°F-18.9°C -8.9°F-22.7°C 72% Calm Calm -- 30.45 in1031.2 mb 0.00 in0.0 mm 0.00 in0.0 mm 0.03 in0.8 mm
07:23 PM -2.6°F-19.2°C -9.2°F-22.9°C 72% Calm Calm -- 30.45 in1031.2 mb 0.00 in0.0 mm 0.00 in0.0 mm 0.03 in0.8 mm
07:30 PM -2.6°F-19.2°C -9.2°F-22.9°C 72% Calm Calm -- 30.45 in1031.2 mb 0.00 in0.0 mm 0.00 in0.0 mm 0.03 in0.8 mm
07:37 PM -2.7°F-19.3°C -9.6°F-23.1°C 72% Calm Calm -- 30.45 in1031.2 mb 0.00 in0.0 mm 0.00 in0.0 mm 0.03 in0.8 mm
07:44 PM -2.9°F-19.4°C -9.4°F-23.0°C 73% Calm Calm -- 30.45 in1031.2 mb 0.00 in0.0 mm 0.00 in0.0 mm 0.03 in0.8 mm
07:51 PM -2.9°F-19.4°C -9.6°F-23.1°C 73% Calm Calm -- 30.44 in1030.8 mb 0.00 in0.0 mm 0.00 in0.0 mm 0.03 in0.8 mm
07:58 PM -3.3°F-19.6°C -9.8°F-23.2°C 73% Calm Calm -- 30.44 in1030.8 mb 0.00 in0.0 mm 0.00 in0.0 mm 0.03 in0.8 mm
08:05 PM -3.6°F-19.8°C -10.1°F-23.4°C 73% Calm Calm -- 30.44 in1030.8 mb 0.00 in0.0 mm 0.00 in0.0 mm 0.03 in0.8 mm
08:12 PM -3.8°F-19.9°C -10.3°F-23.5°C 73% Calm Calm 1.0 mph1.6 kmh 30.44 in1030.8 mb 0.00 in0.0 mm 0.00 in0.0 mm 0.03 in0.8 mm
08:19 PM -4.2°F-20.1°C -10.7°F-23.7°C 73% Calm Calm 1.0 mph1.6 kmh 30.44 in1030.8 mb 0.00 in0.0 mm 0.00 in0.0 mm 0.03 in0.8 mm
08:26 PM -4.4°F-20.2°C -10.8°F-23.8°C 73% Calm Calm 1.0 mph1.6 kmh 30.44 in1030.8 mb 0.00 in0.0 mm 0.00 in0.0 mm 0.03 in0.8 mm
08:33 PM -4.5°F-20.3°C -10.7°F-23.7°C 74% Calm Calm 1.0 mph1.6 kmh 30.43 in1030.5 mb 0.00 in0.0 mm 0.00 in0.0 mm 0.03 in0.8 mm
08:40 PM -4.9°F-20.5°C -11.4°F-24.1°C 73% Calm Calm 1.0 mph1.6 kmh 30.43 in1030.5 mb 0.00 in0.0 mm 0.00 in0.0 mm 0.03 in0.8 mm
08:47 PM -5.1°F-20.6°C -11.2°F-24.0°C 74% Calm Calm 1.0 mph1.6 kmh 30.43 in1030.5 mb 0.00 in0.0 mm 0.00 in0.0 mm 0.03 in0.8 mm
08:54 PM -5.1°F-20.6°C -11.2°F-24.0°C 74% Calm Calm -- 30.43 in1030.5 mb 0.00 in0.0 mm 0.00 in0.0 mm 0.03 in0.8 mm
09:01 PM -5.3°F-20.7°C -11.4°F-24.1°C 74% Calm Calm -- 30.43 in1030.5 mb 0.00 in0.0 mm 0.00 in0.0 mm 0.03 in0.8 mm
09:08 PM -5.4°F-20.8°C -11.6°F-24.2°C 74% Calm Calm 1.0 mph1.6 kmh 30.43 in1030.5 mb 0.00 in0.0 mm 0.00 in0.0 mm 0.03 in0.8 mm
09:15 PM -5.4°F-20.8°C -11.6°F-24.2°C 74% Calm Calm -- 30.43 in1030.5 mb 0.00 in0.0 mm 0.00 in0.0 mm 0.03 in0.8 mm
09:22 PM -5.6°F-20.9°C -11.7°F-24.3°C 74% Calm Calm 1.0 mph1.6 kmh 30.43 in1030.5 mb 0.00 in0.0 mm 0.00 in0.0 mm 0.03 in0.8 mm
09:29 PM -6.0°F-21.1°C -12.1°F-24.5°C 74% Calm Calm 1.0 mph1.6 kmh 30.43 in1030.5 mb 0.00 in0.0 mm 0.00 in0.0 mm 0.03 in0.8 mm
09:36 PM -6.3°F-21.3°C -12.5°F-24.7°C 74% Calm Calm 1.0 mph1.6 kmh 30.43 in1030.5 mb 0.00 in0.0 mm 0.00 in0.0 mm 0.03 in0.8 mm
09:43 PM -5.8°F-21.0°C -11.7°F-24.3°C 75% Calm Calm -- 30.43 in1030.5 mb 0.00 in0.0 mm 0.00 in0.0 mm 0.03 in0.8 mm
09:50 PM -5.8°F-21.0°C -11.7°F-24.3°C 75% Calm Calm -- 30.43 in1030.5 mb 0.00 in0.0 mm 0.00 in0.0 mm 0.03 in0.8 mm
09:57 PM -6.2°F-21.2°C -12.3°F-24.6°C 74% Calm Calm 1.0 mph1.6 kmh 30.43 in1030.5 mb 0.00 in0.0 mm 0.00 in0.0 mm 0.03 in0.8 mm
10:04 PM -6.3°F-21.3°C -12.1°F-24.5°C 75% Calm Calm 1.0 mph1.6 kmh 30.42 in1030.1 mb 0.00 in0.0 mm 0.00 in0.0 mm 0.03 in0.8 mm
10:11 PM -6.3°F-21.3°C -12.1°F-24.5°C 75% Calm Calm 1.0 mph1.6 kmh 30.42 in1030.1 mb 0.00 in0.0 mm 0.00 in0.0 mm 0.03 in0.8 mm
10:18 PM -6.5°F-21.4°C -12.5°F-24.7°C 75% Calm Calm -- 30.43 in1030.5 mb 0.00 in0.0 mm 0.00 in0.0 mm 0.03 in0.8 mm
10:25 PM -6.3°F-21.3°C -12.3°F-24.6°C 75% Calm Calm -- 30.42 in1030.1 mb 0.00 in0.0 mm 0.00 in0.0 mm 0.03 in0.8 mm
10:32 PM -6.3°F-21.3°C -12.1°F-24.5°C 75% Calm Calm -- 30.41 in1029.8 mb 0.00 in0.0 mm 0.00 in0.0 mm 0.03 in0.8 mm
10:39 PM -6.3°F-21.3°C -12.3°F-24.6°C 75% Calm Calm -- 30.41 in1029.8 mb 0.00 in0.0 mm 0.00 in0.0 mm 0.03 in0.8 mm
10:46 PM -6.2°F-21.2°C -12.1°F-24.5°C 75% Calm Calm -- 30.41 in1029.8 mb 0.00 in0.0 mm 0.00 in0.0 mm 0.03 in0.8 mm
10:53 PM -6.0°F-21.1°C -11.9°F-24.4°C 75% Calm Calm 1.0 mph1.6 kmh 30.41 in1029.8 mb 0.00 in0.0 mm 0.00 in0.0 mm 0.03 in0.8 mm
11:00 PM -6.0°F-21.1°C -11.7°F-24.3°C 75% Calm Calm 1.0 mph1.6 kmh 30.41 in1029.8 mb 0.00 in0.0 mm 0.00 in0.0 mm 0.03 in0.8 mm
11:07 PM -5.6°F-20.9°C -11.6°F-24.2°C 75% Calm Calm -- 30.41 in1029.8 mb 0.00 in0.0 mm 0.00 in0.0 mm 0.03 in0.8 mm
11:14 PM -5.4°F-20.8°C -11.2°F-24.0°C 75% Calm Calm -- 30.40 in1029.5 mb 0.00 in0.0 mm 0.00 in0.0 mm 0.03 in0.8 mm
11:21 PM -5.3°F-20.7°C -11.0°F-23.9°C 75% Calm Calm -- 30.40 in1029.5 mb 0.00 in0.0 mm 0.00 in0.0 mm 0.03 in0.8 mm
11:28 PM -5.1°F-20.6°C -10.8°F-23.8°C 75% Calm Calm -- 30.41 in1029.8 mb 0.00 in0.0 mm 0.00 in0.0 mm 0.03 in0.8 mm
11:35 PM -4.7°F-20.4°C -10.7°F-23.7°C 75% Calm Calm 1.0 mph1.6 kmh 30.40 in1029.5 mb 0.00 in0.0 mm 0.00 in0.0 mm 0.03 in0.8 mm
11:42 PM -4.2°F-20.1°C -9.9°F-23.3°C 75% Calm Calm 1.0 mph1.6 kmh 30.39 in1029.1 mb 0.00 in0.0 mm 0.00 in0.0 mm 0.03 in0.8 mm
11:49 PM -3.5°F-19.7°C -9.4°F-23.0°C 75% Calm Calm 1.0 mph1.6 kmh 30.40 in1029.5 mb 0.00 in0.0 mm 0.00 in0.0 mm 0.03 in0.8 mm
11:56 PM -3.3°F-19.6°C -9.2°F-22.9°C 75% Calm Calm 1.0 mph1.6 kmh 30.40 in1029.5 mb 0.00 in0.0 mm 0.00 in0.0 mm 0.03 in0.8 mm